Startpagina
METAR-TAF:

METAR-TAF

Vliegvelden :

Masset, Brits Columbia, Canada

breedte: 54-01-38N, lengte: 132-07-30W, hoogte: 6 m

Actueel weer

Dit bericht is 1 uur en het 3 minuten geleden gemaakt, om 18:00 UTC
Wind 15 kt uit het noordnoordwesten
Temperatuur 6°C
Vochtigheid 65%
Druk 1027 hPa
Zicht: 24.1 km
Weinig wolken op 400 ft
Weinig wolken op 20000 ft

METAR: CZMT 101800Z 33015KT 15SM FEW004 FEW200 06/M00 A3033 RMK CF1CI1 CF TR CONTRAILS SLP271

Tijdstip: 12:03 (19:03 UTC)

Verwachting

Dit bericht is 25 minuten geleden gemaakt, om 18:38 UTC
Verwachting geldig van 10 om 19 UTC tot 11 om 01 UTC
Wind 12 kt uit het noordnoordwesten
Zicht: 10 km
Weinig wolken op 4000 ft
Weinig wolken op 20000 ft

TAF: CZMT 101838Z 1019/1101 33012KT P6SM FEW040 FEW200 RMK NXT FCST WILL BE ISSUED AT 111515Z

Waarnemingen en weersverwachtingen van meer dan 4000 vliegvelden (METAR en TAF).

De beschikbare stations zijn de gele en rode punten op de kaart.

Ga met uw muis naar het station om de naam te zien.

Klik dan om waarnemingen en weersverwachtingen te zien.

kaart wijzigen: klik op de groene knoppen met een zwart kruis om in te zoomen, op de groene knop met een streepje om uit te zoomen of op de groene pijlen voor aangrenzende kaarten.


METAR-TAF: